Arden, NY

11:03 AM EST on March 05, 2015 (GMT -0500)
N2KI - Skywarn Spotter ID 13-330NYC | Change Station
CLOSE
Current Station
Personal Weather Station
Location: Washingtonville, NY
Elevation: 300 ft
Nearby Weather Stations
Active Advisory: Special Statement Active Notice: Public Information Statement

Elev 300 ft 41.42 °N, 74.15 °W | Updated 7 seconds ago

Snow
Snow
25.1 °F
Feels Like 18 °F
N
5.8
Wind Variable Wind from West
Gusts 5.8 mph

Today
High -- | Low -- °F
--% Chance of Precip.
Yesterday
High -- | Low -- °F
Precip. -- in
6:25 AM 5:51 PM
Full, 100% visible
Pressure 30.11 in
Visibility 10.0 miles
Clouds Overcast 5000 ft
Windchill 18 °F
Dew Point 10 °F
Humidity 52%
Rainfall in
Snow Depth Not available.
UV 1 out of 12
Pollen .60 out of 12
Air Quality Not available.
Flu Activity Not available.
METAR KSWF 051545Z 30010KT 10SM OVC050 M03/M10 A3011

More Conditions Fewer Conditions

Pressure 30.11 in
Visibility 10.0 miles
Clouds Overcast 5000 ft
Windchill 18 °F
Dew Point 10 °F
Humidity 52%
Rainfall in
Snow Depth Not available.
UV 1 out of 12
Pollen .60 out of 12
Air Quality Not available.
Flu Activity Not available.
METAR KSWF 051545Z 30010KT 10SM OVC050 M03/M10 A3011

More Conditions Fewer Conditions

10-Day Weather Forecast

Almanac

Astronomy

Mar. 05, 2015 Rise Set
Actual Time
Civil Twilight
Nautical Twilight
Astronomical Twilight
Moon
Length of Visible Light
Length of Day
Tomorrow will be .
, % of the Moon is Illuminated

Today's Extremes

State Highs State Lows

Community

WunderPhotos

Upload Photos

1,802,833 photos uploaded!

WunderBlogs® & News

Nearby

Air Quality

  Air Quality AQ Index Pollutant
Not available.

Snow Depth

Station Depth Elevation

Earthquake Activity

City Distance Mag. Time & Date
Minimum magnitude displayed is 2.5.

Coastal Water Temperatures

Place Temperature

Nearby Weather Stations

Special Statement
Statement as of 10:45 AM EST on March 05, 2015

... Snow with slippery travel through early this afternoon...

Periods of light to occasionally moderate snow will fall as temperatures
fall to near 20 degrees through early afternoon.

The storm total snowfall forecast through this time is 1 to 3 inches.

Motorists should exercise caution while driving on slippery roads
during this time.